Time;durP1;ratioP1;P1;durP2;ratioP2;P2;SDS_P1;SDS_P2;PMS_P1;PMS_P2;Temp;Humidity;BMP_temperature;BMP_pressure;BME280_temperature;BME280_humidity;BME280_pressure;Samples;Min_cycle;Max_cycle;Signal;HPM_P1;HPM_P2
2021/11/06 00:02:02;;;;;;;23.23;14.35;;;8.10;99.90;;;;;;5056398;28;20037;-59
2021/11/06 00:04:28;;;;;;;23.17;14.32;;;8.00;99.90;;;;;;5056808;28;20380;-59
2021/11/06 00:06:56;;;;;;;23.92;14.40;;;7.90;99.90;;;;;;5056185;28;20032;-57
2021/11/06 00:09:21;;;;;;;23.60;13.73;;;7.90;99.90;;;;;;5056039;28;20123;-61
2021/11/06 00:11:47;;;;;;;22.38;14.45;;;7.80;99.90;;;;;;5055404;28;20110;-55
2021/11/06 00:14:13;;;;;;;22.48;13.70;;;7.70;99.90;;;;;;5055074;28;20052;-59
2021/11/06 00:16:38;;;;;;;25.35;15.00;;;7.70;99.90;;;;;;5055725;28;20037;-59
2021/11/06 00:19:04;;;;;;;26.95;14.45;;;7.70;99.90;;;;;;5055148;28;20076;-60
2021/11/06 00:21:29;;;;;;;20.80;13.73;;;7.70;99.90;;;;;;5055526;28;20039;-59
2021/11/06 00:23:55;;;;;;;22.77;13.43;;;7.60;99.90;;;;;;5055719;28;20496;-59
2021/11/06 00:26:21;;;;;;;24.17;13.93;;;7.60;99.90;;;;;;5055333;28;20643;-59
2021/11/06 00:28:46;;;;;;;22.67;15.57;;;7.60;99.90;;;;;;5055594;28;20045;-58
2021/11/06 00:31:12;;;;;;;24.60;14.00;;;7.50;99.90;;;;;;5056166;28;20029;-58
2021/11/06 00:33:37;;;;;;;23.70;14.65;;;7.50;99.90;;;;;;5055717;28;20059;-60
2021/11/06 00:36:04;;;;;;;21.63;13.45;;;7.40;99.90;;;;;;5055468;28;20029;-59
2021/11/06 00:38:29;;;;;;;27.13;13.70;;;7.40;99.90;;;;;;5055170;28;20429;-60
2021/11/06 00:40:55;;;;;;;23.52;13.32;;;7.40;99.90;;;;;;5054556;28;20115;-60
2021/11/06 00:43:20;;;;;;;20.23;13.20;;;7.40;99.90;;;;;;5055165;28;20393;-59
2021/11/06 00:45:46;;;;;;;21.38;13.50;;;7.40;99.90;;;;;;5056269;28;20496;-58
2021/11/06 00:48:11;;;;;;;19.17;13.23;;;7.30;99.90;;;;;;5056552;28;20041;-60
2021/11/06 00:50:37;;;;;;;19.83;12.95;;;7.30;99.90;;;;;;5054916;28;20036;-60
2021/11/06 00:53:03;;;;;;;19.52;12.57;;;7.40;99.90;;;;;;5055884;28;20079;-60
2021/11/06 00:55:29;;;;;;;22.45;12.35;;;7.30;99.90;;;;;;5055825;28;20448;-59
2021/11/06 00:57:54;;;;;;;19.58;12.63;;;7.30;99.90;;;;;;5055403;28;20131;-56
2021/11/06 01:00:20;;;;;;;24.15;12.07;;;7.20;99.90;;;;;;5054853;28;20484;-58
2021/11/06 01:02:47;;;;;;;20.73;11.75;;;7.20;99.90;;;;;;5054570;28;20044;-60
2021/11/06 01:05:13;;;;;;;19.60;11.60;;;7.10;99.90;;;;;;5054344;28;20025;-58
2021/11/06 01:07:40;;;;;;;20.92;12.70;;;7.00;99.90;;;;;;5054927;28;20071;-60
2021/11/06 01:10:09;;;;;;;23.80;11.93;;;7.10;99.90;;;;;;5054807;28;20032;-59
2021/11/06 01:12:35;;;;;;;19.33;10.90;;;7.10;99.90;;;;;;5053977;28;20420;-59
2021/11/06 01:15:01;;;;;;;16.63;10.95;;;7.10;99.90;;;;;;5055423;28;20040;-58
2021/11/06 01:17:26;;;;;;;20.75;10.82;;;7.20;99.90;;;;;;5054559;28;20037;-60
2021/11/06 01:19:52;;;;;;;17.55;10.57;;;7.20;99.90;;;;;;5055080;28;20036;-59
2021/11/06 01:22:17;;;;;;;17.52;11.25;;;7.10;99.90;;;;;;5054500;28;20040;-59
2021/11/06 01:24:43;;;;;;;16.00;12.18;;;7.10;99.90;;;;;;5055071;28;20071;-55
2021/11/06 01:27:11;;;;;;;16.85;11.32;;;7.00;99.90;;;;;;5055240;28;20393;-59
2021/11/06 01:29:38;;;;;;;18.10;12.05;;;7.10;99.90;;;;;;5052813;28;20076;-59
2021/11/06 01:32:06;;;;;;;22.65;11.90;;;7.10;99.90;;;;;;5054349;28;20100;-57
2021/11/06 01:34:32;;;;;;;21.77;11.73;;;7.10;99.90;;;;;;5055135;28;20022;-59
2021/11/06 01:36:57;;;;;;;18.02;12.50;;;7.10;99.90;;;;;;5054485;28;20029;-58
2021/11/06 01:39:23;;;;;;;22.58;13.13;;;7.10;99.90;;;;;;5036977;28;20056;-56
2021/11/06 01:41:49;;;;;;;20.92;12.45;;;7.10;99.90;;;;;;5054360;28;20055;-59
2021/11/06 01:44:14;;;;;;;21.30;13.25;;;7.10;99.90;;;;;;5055020;28;20033;-59
2021/11/06 01:46:40;;;;;;;21.35;12.88;;;7.10;99.90;;;;;;5054319;28;20029;-60
2021/11/06 01:49:05;;;;;;;18.38;11.18;;;7.10;99.90;;;;;;5052910;28;20492;-58
2021/11/06 01:51:31;;;;;;;16.80;11.85;;;7.30;99.90;;;;;;5053992;28;20033;-60
2021/11/06 01:53:57;;;;;;;20.17;11.70;;;7.40;99.90;;;;;;5054703;28;20485;-59
2021/11/06 01:56:22;;;;;;;20.50;12.07;;;7.40;99.90;;;;;;5055001;28;20052;-57
2021/11/06 01:58:48;;;;;;;17.10;11.35;;;7.40;99.90;;;;;;5054747;28;20056;-59
2021/11/06 02:01:14;;;;;;;14.68;10.52;;;7.40;99.90;;;;;;5054346;28;20481;-59
2021/11/06 02:03:39;;;;;;;14.82;10.77;;;7.40;99.90;;;;;;5053677;28;20555;-58
2021/11/06 02:06:05;;;;;;;21.75;11.55;;;7.50;99.90;;;;;;5054176;28;20068;-59
2021/11/06 02:08:31;;;;;;;21.92;12.15;;;7.50;99.90;;;;;;5053073;28;20036;-60
2021/11/06 02:10:57;;;;;;;17.95;10.30;;;7.50;99.90;;;;;;5054357;28;20021;-58
2021/11/06 02:13:22;;;;;;;15.63;10.20;;;7.50;99.90;;;;;;5052942;28;20481;-59
2021/11/06 02:15:48;;;;;;;20.20;11.52;;;7.50;99.90;;;;;;5052826;28;20093;-56
2021/11/06 02:18:14;;;;;;;19.52;11.95;;;7.50;99.90;;;;;;5053807;28;20527;-58
2021/11/06 02:20:48;;;;;;;19.88;12.63;;;7.50;99.90;;;;;;5053794;28;20107;-58
2021/11/06 02:23:15;;;;;;;19.73;11.90;;;7.40;99.90;;;;;;5052655;28;20101;-59
2021/11/06 02:25:40;;;;;;;17.73;11.57;;;7.40;99.90;;;;;;5053851;28;20121;-56
2021/11/06 02:28:06;;;;;;;18.05;10.90;;;7.50;99.90;;;;;;5054248;28;20041;-57
2021/11/06 02:30:32;;;;;;;19.65;11.70;;;7.50;99.90;;;;;;5053719;28;20029;-57
2021/11/06 02:33:00;;;;;;;18.08;12.15;;;7.50;99.90;;;;;;5053048;28;20033;-57
2021/11/06 02:35:25;;;;;;;18.83;11.52;;;7.50;99.90;;;;;;5052070;28;20032;-58
2021/11/06 02:37:51;;;;;;;19.45;11.57;;;7.50;99.90;;;;;;5052307;28;20040;-59
2021/11/06 02:40:16;;;;;;;18.00;10.40;;;7.50;99.90;;;;;;5053556;28;20041;-58
2021/11/06 02:42:42;;;;;;;18.80;11.32;;;7.50;99.90;;;;;;5053160;28;20029;-59
2021/11/06 02:45:10;;;;;;;26.20;12.93;;;7.60;99.90;;;;;;5053420;28;20025;-60
2021/11/06 02:47:36;;;;;;;21.95;12.77;;;7.50;99.90;;;;;;5053862;28;20116;-58
2021/11/06 02:50:03;;;;;;;22.23;13.05;;;7.60;99.90;;;;;;5054362;28;20120;-59
2021/11/06 02:52:29;;;;;;;18.77;12.50;;;7.70;99.90;;;;;;5053350;28;20032;-58
2021/11/06 02:54:55;;;;;;;18.33;12.63;;;7.60;99.90;;;;;;5051912;28;20389;-59
2021/11/06 02:57:20;;;;;;;17.25;11.93;;;7.60;99.90;;;;;;5054346;28;20037;-59
2021/11/06 02:59:46;;;;;;;22.23;14.13;;;7.60;99.90;;;;;;5053368;28;20063;-59
2021/11/06 03:02:12;;;;;;;21.95;12.15;;;7.50;99.90;;;;;;5053778;28;20037;-60
2021/11/06 03:04:38;;;;;;;23.60;13.45;;;7.60;99.90;;;;;;5053393;28;20031;-58
2021/11/06 03:07:05;;;;;;;19.55;13.43;;;7.60;99.90;;;;;;5053441;28;20032;-58
2021/11/06 03:09:38;;;;;;;23.83;14.82;;;7.60;99.90;;;;;;5053585;28;20029;-60
2021/11/06 03:12:05;;;;;;;25.20;14.00;;;7.60;99.90;;;;;;5053657;28;20040;-58
2021/11/06 03:14:34;;;;;;;20.33;13.10;;;7.60;99.90;;;;;;5053263;28;20033;-58
2021/11/06 03:16:59;;;;;;;19.92;13.38;;;7.60;99.90;;;;;;5052609;28;20061;-58
2021/11/06 03:19:25;;;;;;;20.55;13.10;;;7.60;99.90;;;;;;5053040;28;20040;-60
2021/11/06 03:21:50;;;;;;;22.85;12.85;;;7.60;99.90;;;;;;5052837;28;20040;-59
2021/11/06 03:24:16;;;;;;;22.23;14.00;;;7.60;99.90;;;;;;5052876;28;20033;-57
2021/11/06 03:26:42;;;;;;;22.55;14.52;;;7.60;99.90;;;;;;5052639;28;20381;-58
2021/11/06 03:29:07;;;;;;;24.90;14.43;;;7.50;99.90;;;;;;5052675;28;20033;-60
2021/11/06 03:31:33;;;;;;;22.42;14.90;;;7.60;99.90;;;;;;5053659;28;20033;-62
2021/11/06 03:33:59;;;;;;;22.08;13.77;;;7.60;99.90;;;;;;5053695;28;20037;-59
2021/11/06 03:36:24;;;;;;;25.75;14.70;;;7.50;99.90;;;;;;5052695;28;20047;-59
2021/11/06 03:38:50;;;;;;;24.05;14.75;;;7.60;99.90;;;;;;5052774;28;20060;-57
2021/11/06 03:41:16;;;;;;;23.35;13.43;;;7.60;99.90;;;;;;5053764;28;20413;-60
2021/11/06 03:43:41;;;;;;;23.23;14.48;;;7.60;99.90;;;;;;5052704;28;20033;-58
2021/11/06 03:46:07;;;;;;;25.08;15.93;;;7.60;99.90;;;;;;5055868;28;20496;-56
2021/11/06 03:48:33;;;;;;;23.48;15.82;;;7.70;99.90;;;;;;5055493;28;20362;-56
2021/11/06 03:50:59;;;;;;;26.25;15.77;;;7.70;99.90;;;;;;5056126;28;20045;-58
2021/11/06 03:53:25;;;;;;;23.17;15.13;;;7.70;99.90;;;;;;5056707;28;20044;-59
2021/11/06 03:55:51;;;;;;;26.25;16.30;;;7.70;99.90;;;;;;5057009;28;20032;-59
2021/11/06 03:58:17;;;;;;;23.67;15.90;;;7.80;99.90;;;;;;5057275;28;20409;-60
2021/11/06 04:00:42;;;;;;;24.67;16.55;;;7.70;99.90;;;;;;5056782;28;20055;-60
2021/11/06 04:03:08;;;;;;;26.92;16.40;;;7.60;99.90;;;;;;5057196;28;20083;-57
2021/11/06 04:05:33;;;;;;;26.23;16.85;;;7.70;99.90;;;;;;5056895;28;20036;-57
2021/11/06 04:07:59;;;;;;;26.27;16.83;;;7.70;99.90;;;;;;5054904;28;20025;-56
2021/11/06 04:10:25;;;;;;;22.25;15.10;;;7.60;99.90;;;;;;5056485;28;20127;-56
2021/11/06 04:12:50;;;;;;;28.63;17.23;;;7.70;99.90;;;;;;5053310;28;20032;-59
2021/11/06 04:15:16;;;;;;;25.70;16.27;;;7.80;99.90;;;;;;5055956;28;20144;-57
2021/11/06 04:17:42;;;;;;;25.70;16.67;;;7.70;99.90;;;;;;5056562;28;20052;-56
2021/11/06 04:20:09;;;;;;;24.17;15.32;;;7.70;99.90;;;;;;5054780;28;20091;-58
2021/11/06 04:22:34;;;;;;;25.20;17.23;;;7.70;99.90;;;;;;5051655;28;20041;-60
2021/11/06 04:25:02;;;;;;;26.73;16.27;;;7.70;99.90;;;;;;5050317;28;20037;-63
2021/11/06 04:27:27;;;;;;;28.08;17.80;;;7.70;99.90;;;;;;5055238;28;20029;-62
2021/11/06 04:29:53;;;;;;;24.83;17.17;;;7.70;99.90;;;;;;5055220;28;20029;-59
2021/11/06 04:32:18;;;;;;;29.67;18.55;;;7.70;99.90;;;;;;5055279;28;20048;-60
2021/11/06 04:34:44;;;;;;;25.00;16.20;;;7.70;99.90;;;;;;5041656;28;20492;-63
2021/11/06 04:37:10;;;;;;;25.27;17.38;;;7.80;99.90;;;;;;5054972;28;20025;-56
2021/11/06 04:39:35;;;;;;;31.42;19.40;;;7.70;99.90;;;;;;5053393;28;20523;-62
2021/11/06 04:42:02;;;;;;;27.70;18.23;;;7.70;99.90;;;;;;5054378;28;20091;-60
2021/11/06 04:44:27;;;;;;;27.52;18.02;;;7.70;99.90;;;;;;5055206;28;20512;-60
2021/11/06 04:46:53;;;;;;;28.52;18.70;;;7.80;99.90;;;;;;5055618;28;20044;-60
2021/11/06 04:49:19;;;;;;;29.63;18.70;;;7.80;99.90;;;;;;5055226;28;20036;-61
2021/11/06 04:51:45;;;;;;;27.25;19.17;;;7.80;99.90;;;;;;5055316;28;20095;-60
2021/11/06 04:54:11;;;;;;;29.77;19.73;;;7.80;99.90;;;;;;5055848;28;20036;-58
2021/11/06 04:56:36;;;;;;;29.88;19.85;;;7.80;99.90;;;;;;5054274;28;20043;-58
2021/11/06 04:59:03;;;;;;;32.83;20.08;;;7.80;99.90;;;;;;5053382;28;20040;-59
2021/11/06 05:01:29;;;;;;;35.55;20.98;;;7.80;99.90;;;;;;5054941;28;20033;-59
2021/11/06 05:03:54;;;;;;;28.45;20.55;;;7.70;99.90;;;;;;5054824;28;20048;-62
2021/11/06 05:06:20;;;;;;;35.47;20.33;;;7.70;99.90;;;;;;5054589;28;20087;-64
2021/11/06 05:08:45;;;;;;;33.90;21.40;;;7.80;99.90;;;;;;5055196;28;20373;-57
2021/11/06 05:11:11;;;;;;;35.63;21.80;;;7.90;99.90;;;;;;5054617;28;20057;-61
2021/11/06 05:13:37;;;;;;;31.92;22.20;;;7.80;99.90;;;;;;5054627;28;20033;-63
2021/11/06 05:16:03;;;;;;;32.22;21.17;;;7.80;99.90;;;;;;5055286;28;20037;-63
2021/11/06 05:18:28;;;;;;;32.00;21.30;;;7.90;99.90;;;;;;5053284;28;20373;-58
2021/11/06 05:20:54;;;;;;;34.70;21.30;;;8.00;99.90;;;;;;5036766;28;20044;-60
2021/11/06 05:23:20;;;;;;;28.13;20.08;;;8.00;99.90;;;;;;5054446;28;20070;-58
2021/11/06 05:25:46;;;;;;;27.73;19.33;;;8.00;99.90;;;;;;5055448;28;20123;-64
2021/11/06 05:28:13;;;;;;;32.90;21.75;;;8.00;99.90;;;;;;5053692;28;20036;-58
2021/11/06 05:30:39;;;;;;;30.95;20.80;;;8.00;99.90;;;;;;5054276;28;20041;-60
2021/11/06 05:33:05;;;;;;;30.38;21.10;;;8.00;99.90;;;;;;5054337;28;20374;-61
2021/11/06 05:35:30;;;;;;;29.83;20.40;;;8.00;99.90;;;;;;5054176;28;20104;-55
2021/11/06 05:37:56;;;;;;;27.83;19.30;;;7.90;99.90;;;;;;5054139;28;20036;-62
2021/11/06 05:40:22;;;;;;;29.52;20.77;;;8.00;99.90;;;;;;5053701;28;20439;-59
2021/11/06 05:42:48;;;;;;;29.65;19.40;;;8.00;99.90;;;;;;5054771;28;20033;-60
2021/11/06 05:45:15;;;;;;;30.15;20.05;;;8.00;99.90;;;;;;5055012;28;20029;-57
2021/11/06 05:47:40;;;;;;;30.05;19.67;;;7.90;99.90;;;;;;5054071;28;20036;-60
2021/11/06 05:50:09;;;;;;;35.97;20.63;;;8.00;99.90;;;;;;5053465;28;20032;-62
2021/11/06 05:52:36;;;;;;;31.88;19.15;;;7.90;99.90;;;;;;5052259;28;20067;-58
2021/11/06 05:55:03;;;;;;;30.15;20.70;;;8.00;99.90;;;;;;5054266;28;20067;-57
2021/11/06 05:57:29;;;;;;;27.08;17.95;;;8.00;99.90;;;;;;5053628;28;20113;-61
2021/11/06 05:59:55;;;;;;;22.70;17.50;;;8.00;99.90;;;;;;5053677;28;20111;-61
2021/11/06 06:02:20;;;;;;;27.02;19.33;;;8.00;99.90;;;;;;5053524;28;20044;-58
2021/11/06 06:04:46;;;;;;;26.63;18.88;;;8.00;99.90;;;;;;5053769;28;20494;-57
2021/11/06 06:07:12;;;;;;;26.45;17.85;;;8.00;99.90;;;;;;5053823;28;20032;-60
2021/11/06 06:09:37;;;;;;;26.38;17.98;;;8.00;99.90;;;;;;5054371;28;20384;-62
2021/11/06 06:12:03;;;;;;;25.92;18.38;;;8.00;99.90;;;;;;5053836;28;20116;-59
2021/11/06 06:14:29;;;;;;;25.70;18.67;;;8.00;99.90;;;;;;5053517;28;20476;-60
2021/11/06 06:16:54;;;;;;;26.15;17.05;;;8.00;99.90;;;;;;5051764;28;20048;-57
2021/11/06 06:19:20;;;;;;;26.02;17.80;;;8.20;99.90;;;;;;5053548;28;20319;-60
2021/11/06 06:21:45;;;;;;;25.15;16.90;;;8.20;99.90;;;;;;5052249;28;20028;-60
2021/11/06 06:24:11;;;;;;;26.20;18.40;;;8.20;99.90;;;;;;5053004;28;20029;-58
2021/11/06 06:26:37;;;;;;;24.38;18.30;;;8.10;99.90;;;;;;5054102;28;20028;-59
2021/11/06 06:29:02;;;;;;;22.73;16.85;;;8.10;99.90;;;;;;5053034;28;20055;-58
2021/11/06 06:31:28;;;;;;;25.75;16.88;;;8.10;99.90;;;;;;5054383;28;20043;-60
2021/11/06 06:33:54;;;;;;;29.52;17.77;;;8.20;99.90;;;;;;5053767;28;20033;-58
2021/11/06 06:36:20;;;;;;;27.73;18.45;;;8.20;99.90;;;;;;5053916;28;20130;-59
2021/11/06 06:38:45;;;;;;;26.45;17.00;;;8.20;99.90;;;;;;5053475;28;20484;-59
2021/11/06 06:41:11;;;;;;;24.38;17.95;;;8.10;99.90;;;;;;5053370;28;20037;-59
2021/11/06 06:43:37;;;;;;;26.98;16.70;;;8.10;99.90;;;;;;5053710;28;20059;-58
2021/11/06 06:46:03;;;;;;;29.27;19.02;;;8.10;99.90;;;;;;5054358;28;20483;-60
2021/11/06 06:48:28;;;;;;;34.90;16.65;;;8.20;99.90;;;;;;5051939;28;20362;-59
2021/11/06 06:50:54;;;;;;;24.40;16.88;;;8.20;99.90;;;;;;5053823;28;20465;-58
2021/11/06 06:53:21;;;;;;;22.90;15.80;;;8.10;99.90;;;;;;5053747;28;20396;-60
2021/11/06 06:55:47;;;;;;;21.70;16.55;;;8.10;99.90;;;;;;5053236;28;20028;-60
2021/11/06 06:58:12;;;;;;;24.23;16.40;;;8.10;99.90;;;;;;5053626;28;20067;-59
2021/11/06 07:00:39;;;;;;;24.05;16.42;;;8.10;99.90;;;;;;5053331;28;20037;-57
2021/11/06 07:03:04;;;;;;;27.20;18.40;;;8.10;99.90;;;;;;5053834;28;20021;-57
2021/11/06 07:05:30;;;;;;;25.52;17.55;;;8.20;99.90;;;;;;5048948;28;20026;-60
2021/11/06 07:07:57;;;;;;;27.05;17.73;;;8.30;99.90;;;;;;5040734;28;20040;-59
2021/11/06 07:10:24;;;;;;;24.98;17.58;;;8.20;99.90;;;;;;5053291;28;20044;-59
2021/11/06 07:12:50;;;;;;;25.48;17.92;;;8.20;99.90;;;;;;5053074;28;20481;-60
2021/11/06 07:15:15;;;;;;;28.38;18.20;;;8.20;99.90;;;;;;5052923;28;20164;-58
2021/11/06 07:17:41;;;;;;;23.67;17.40;;;8.30;99.90;;;;;;5054047;28;20586;-59
2021/11/06 07:20:09;;;;;;;29.45;19.15;;;8.30;99.90;;;;;;5053421;28;20059;-59
2021/11/06 07:22:35;;;;;;;27.00;17.52;;;8.20;99.90;;;;;;5057351;28;20040;-59
2021/11/06 07:25:01;;;;;;;28.73;19.70;;;8.20;99.90;;;;;;5057526;28;20435;-59
2021/11/06 07:27:27;;;;;;;24.50;17.15;;;8.30;99.90;;;;;;5057788;28;20025;-60
2021/11/06 07:29:52;;;;;;;25.92;18.25;;;8.20;99.90;;;;;;5055676;28;20040;-60
2021/11/06 07:32:18;;;;;;;25.27;18.02;;;8.30;99.90;;;;;;5056945;28;20056;-59
2021/11/06 07:34:44;;;;;;;26.25;17.33;;;8.40;99.90;;;;;;5056693;28;20098;-56
2021/11/06 07:37:10;;;;;;;28.08;19.50;;;8.50;99.90;;;;;;5056955;28;20029;-58
2021/11/06 07:39:35;;;;;;;25.95;18.15;;;8.40;99.90;;;;;;5056633;28;20048;-58
2021/11/06 07:42:01;;;;;;;24.70;18.15;;;8.40;99.90;;;;;;5056445;28;20524;-59
2021/11/06 07:44:26;;;;;;;24.35;18.23;;;8.40;99.90;;;;;;5056678;28;20040;-56
2021/11/06 07:46:52;;;;;;;28.73;18.42;;;8.40;99.90;;;;;;5056508;28;20075;-61
2021/11/06 07:49:17;;;;;;;26.30;17.90;;;8.40;99.90;;;;;;5054888;28;20033;-60
2021/11/06 07:51:44;;;;;;;25.38;17.27;;;8.50;99.90;;;;;;5054905;28;20141;-58
2021/11/06 07:54:09;;;;;;;22.95;17.05;;;8.50;99.90;;;;;;5056367;28;20125;-58
2021/11/06 07:56:38;;;;;;;26.10;16.83;;;8.60;99.90;;;;;;5056256;28;20061;-60
2021/11/06 07:59:04;;;;;;;25.42;16.45;;;8.50;99.90;;;;;;5056322;28;20029;-60
2021/11/06 08:01:30;;;;;;;22.17;16.55;;;8.50;99.90;;;;;;5058046;28;20033;-59
2021/11/06 08:03:56;;;;;;;28.67;17.20;;;8.50;99.90;;;;;;5058075;28;20021;-60
2021/11/06 08:06:21;;;;;;;25.40;17.40;;;8.50;99.90;;;;;;5054120;28;20036;-58
2021/11/06 08:08:47;;;;;;;22.88;16.02;;;8.50;99.90;;;;;;5053006;28;20108;-63
2021/11/06 08:11:13;;;;;;;23.73;17.05;;;8.60;99.90;;;;;;5055705;28;20491;-58
2021/11/06 08:13:39;;;;;;;23.83;17.40;;;8.60;99.90;;;;;;5056369;28;20048;-57
2021/11/06 08:16:04;;;;;;;25.92;18.00;;;8.50;99.90;;;;;;5055847;28;20049;-60
2021/11/06 08:18:30;;;;;;;28.17;17.13;;;8.60;99.90;;;;;;5054622;28;20056;-58
2021/11/06 08:20:57;;;;;;;26.27;16.63;;;8.60;99.90;;;;;;5055552;28;20033;-59
2021/11/06 08:23:23;;;;;;;25.50;18.10;;;8.50;99.90;;;;;;5056753;28;20037;-60
2021/11/06 08:25:49;;;;;;;23.55;17.20;;;8.60;99.90;;;;;;5055457;28;20547;-58
2021/11/06 08:28:15;;;;;;;28.65;18.48;;;8.50;99.90;;;;;;5056161;28;20115;-59
2021/11/06 08:30:41;;;;;;;24.65;16.92;;;8.50;99.90;;;;;;5055596;28;20033;-57
2021/11/06 08:33:07;;;;;;;30.35;19.05;;;8.60;99.90;;;;;;5055565;28;20040;-59
2021/11/06 08:35:33;;;;;;;31.98;17.85;;;8.60;99.90;;;;;;5056215;28;20090;-58
2021/11/06 08:38:00;;;;;;;25.67;17.65;;;8.60;99.90;;;;;;5055761;28;20092;-59
2021/11/06 08:45:03;;;;;;;22.73;15.73;;;8.80;99.90;;;;;;4918048;29;20040;-59
2021/11/06 08:47:28;;;;;;;26.80;17.48;;;8.80;99.90;;;;;;4896458;28;20060;-57
2021/11/06 08:49:54;;;;;;;22.65;17.10;;;8.90;99.90;;;;;;5046252;28;20128;-65
2021/11/06 08:52:20;;;;;;;24.27;16.77;;;8.90;99.90;;;;;;5055339;28;20037;-60
2021/11/06 08:54:47;;;;;;;22.92;16.33;;;8.80;99.90;;;;;;5054115;28;20517;-59
2021/11/06 08:57:12;;;;;;;24.92;16.65;;;8.90;99.90;;;;;;5054886;28;20504;-59
2021/11/06 08:59:38;;;;;;;24.13;15.90;;;9.10;99.90;;;;;;5054583;28;20025;-58
2021/11/06 09:02:04;;;;;;;21.15;15.55;;;9.00;99.90;;;;;;5054449;28;20037;-61
2021/11/06 09:04:29;;;;;;;21.92;15.85;;;9.00;99.90;;;;;;5053610;28;20063;-59
2021/11/06 09:06:55;;;;;;;20.77;15.60;;;9.00;99.90;;;;;;5053432;28;20055;-59
2021/11/06 09:09:21;;;;;;;20.08;14.52;;;9.10;99.90;;;;;;5053447;28;20036;-60
2021/11/06 09:11:48;;;;;;;20.98;14.73;;;9.10;99.90;;;;;;5055894;28;20041;-58
2021/11/06 09:14:14;;;;;;;22.48;16.00;;;9.30;99.90;;;;;;5055470;28;20034;-61
2021/11/06 09:16:40;;;;;;;21.35;15.55;;;9.40;99.90;;;;;;5054234;28;20047;-62
2021/11/06 09:19:07;;;;;;;20.27;14.98;;;9.40;99.90;;;;;;5050809;28;20524;-61
2021/11/06 09:21:34;;;;;;;22.80;15.07;;;9.50;99.90;;;;;;5046398;28;20076;-60
2021/11/06 09:24:03;;;;;;;19.10;14.20;;;9.40;99.90;;;;;;5053261;28;20035;-58
2021/11/06 09:26:34;;;;;;;20.63;13.85;;;9.40;99.90;;;;;;5053046;28;20029;-60
2021/11/06 09:29:00;;;;;;;16.33;12.60;;;9.50;99.90;;;;;;5037124;28;20128;-62
2021/11/06 09:31:26;;;;;;;17.80;11.45;;;9.40;99.90;;;;;;5045593;28;20051;-60
2021/11/06 09:33:52;;;;;;;20.15;12.55;;;9.50;99.90;;;;;;5036813;28;20029;-59
2021/11/06 09:36:17;;;;;;;19.73;11.68;;;9.70;99.90;;;;;;5054669;28;20025;-60
2021/11/06 09:38:43;;;;;;;17.42;11.73;;;9.80;99.90;;;;;;5054232;28;20037;-60
2021/11/06 09:41:10;;;;;;;19.90;11.85;;;9.70;99.90;;;;;;5053944;28;20037;-60
2021/11/06 09:43:38;;;;;;;16.35;11.68;;;9.70;99.90;;;;;;5051745;28;20120;-60
2021/11/06 09:46:05;;;;;;;13.68;11.02;;;9.70;99.90;;;;;;5053157;28;20037;-60
2021/11/06 09:48:31;;;;;;;17.38;11.43;;;9.80;99.90;;;;;;5053639;28;20082;-60
2021/11/06 09:50:58;;;;;;;13.82;11.48;;;9.80;99.90;;;;;;5054023;28;20389;-63
2021/11/06 09:53:36;;;;;;;15.48;11.35;;;9.80;99.90;;;;;;5054191;28;20507;-59
2021/11/06 09:56:01;;;;;;;16.48;12.20;;;9.80;99.90;;;;;;5054928;28;20040;-61
2021/11/06 09:58:27;;;;;;;15.60;11.45;;;9.80;99.90;;;;;;5054744;28;20530;-61
2021/11/06 10:00:53;;;;;;;16.30;10.52;;;9.90;99.90;;;;;;5053162;28;20435;-65
2021/11/06 10:03:18;;;;;;;15.05;11.10;;;9.90;99.80;;;;;;5054684;28;20029;-63
2021/11/06 10:06:00;;;;;;;14.38;10.60;;;10.00;99.60;;;;;;5054565;28;20045;-62
2021/11/06 10:08:35;;;;;;;16.38;9.98;;;10.00;99.60;;;;;;5054736;28;20107;-62
2021/11/06 10:11:15;;;;;;;13.63;9.63;;;10.00;99.10;;;;;;5054361;28;20104;-62
2021/11/06 10:14:07;;;;;;;14.15;10.15;;;10.10;99.10;;;;;;5054128;28;20025;-63
2021/11/06 10:17:00;;;;;;;14.27;10.80;;;10.10;98.90;;;;;;5052528;28;20052;-62
2021/11/06 10:19:45;;;;;;;15.93;10.88;;;10.10;99.00;;;;;;5049793;28;20045;-61
2021/11/06 10:22:13;;;;;;;16.35;11.27;;;10.00;99.10;;;;;;5053117;28;20465;-60
2021/11/06 10:24:46;;;;;;;14.93;11.05;;;10.00;99.60;;;;;;5053668;28;20040;-62
2021/11/06 10:27:19;;;;;;;24.88;14.40;;;10.20;99.50;;;;;;5053814;28;20009;-62
2021/11/06 10:30:12;;;;;;;18.55;13.00;;;10.20;99.30;;;;;;5053547;28;20163;-62
2021/11/06 10:32:40;;;;;;;17.85;12.88;;;10.10;99.60;;;;;;5053417;28;20052;-60
2021/11/06 10:35:16;;;;;;;18.90;12.15;;;10.00;99.50;;;;;;5053768;28;20032;-59
2021/11/06 10:37:43;;;;;;;16.98;12.70;;;10.00;99.70;;;;;;5053773;28;20090;-62
2021/11/06 10:40:10;;;;;;;18.40;13.20;;;10.10;99.70;;;;;;5053346;28;20021;-61
2021/11/06 10:42:47;;;;;;;16.42;12.65;;;10.10;99.40;;;;;;5053909;28;20021;-63
2021/11/06 10:45:16;;;;;;;17.00;12.98;;;10.10;99.60;;;;;;5048516;28;20014;-61
2021/11/06 10:48:18;;;;;;;18.13;12.88;;;10.10;99.90;;;;;;5033262;28;20503;-64
2021/11/06 10:51:03;;;;;;;16.15;13.68;;;10.10;99.90;;;;;;5029287;28;20041;-62
2021/11/06 10:53:43;;;;;;;;;;;10.20;99.80;;;;;;5032481;28;20033;-62
2021/11/06 10:56:14;;;;;;;17.40;12.93;;;10.20;99.60;;;;;;5046683;28;19912;-62
2021/11/06 10:58:44;;;;;;;19.50;12.55;;;10.10;99.90;;;;;;5053418;28;20040;-63
2021/11/06 11:01:13;;;;;;;15.43;11.73;;;10.20;99.90;;;;;;5051714;28;20048;-60
2021/11/06 11:03:42;;;;;;;15.60;12.90;;;10.10;99.60;;;;;;5035365;28;20033;-65
2021/11/06 11:06:20;;;;;;;18.83;12.48;;;10.20;99.60;;;;;;5053811;28;20504;-61
2021/11/06 11:08:54;;;;;;;18.52;12.27;;;10.20;99.30;;;;;;5052866;28;20041;-62
2021/11/06 11:11:24;;;;;;;18.15;12.15;;;10.30;99.60;;;;;;5051907;28;20032;-62
2021/11/06 11:13:55;;;;;;;13.45;11.20;;;10.20;99.80;;;;;;5051306;28;20409;-62
2021/11/06 11:16:21;;;;;;;19.80;11.82;;;10.30;99.90;;;;;;5052382;28;20037;-63
2021/11/06 11:18:52;;;;;;;17.00;12.40;;;10.40;99.70;;;;;;5053450;28;20480;-64
2021/11/06 11:21:31;;;;;;;15.75;12.20;;;10.40;99.40;;;;;;5052816;28;20037;-61
2021/11/06 11:23:59;;;;;;;16.52;11.63;;;10.30;99.40;;;;;;5053163;28;20051;-69
2021/11/06 11:26:33;;;;;;;17.30;11.90;;;10.40;99.10;;;;;;5052835;28;20369;-68
2021/11/06 11:29:00;;;;;;;15.60;10.90;;;10.30;99.20;;;;;;5034233;28;20030;-67
2021/11/06 11:31:27;;;;;;;16.27;12.15;;;10.50;99.10;;;;;;5033615;28;20037;-67
2021/11/06 11:33:53;;;;;;;14.43;11.35;;;10.40;99.00;;;;;;5031726;28;20091;-67
2021/11/06 11:36:22;;;;;;;16.95;11.80;;;10.50;99.20;;;;;;5031858;28;20088;-66
2021/11/06 11:38:48;;;;;;;21.23;11.63;;;10.50;99.20;;;;;;5033234;28;20388;-67
2021/11/06 11:41:39;;;;;;;14.27;11.13;;;10.60;98.90;;;;;;5031456;28;20247;-67
2021/11/06 11:44:32;;;;;;;15.45;11.52;;;10.50;98.80;;;;;;5033754;28;20021;-68
2021/11/06 11:47:03;;;;;;;15.02;10.65;;;10.40;99.40;;;;;;5033318;28;20029;-69
2021/11/06 11:49:32;;;;;;;16.55;11.35;;;10.50;99.40;;;;;;5032968;28;20034;-68
2021/11/06 11:51:58;;;;;;;14.00;11.18;;;10.60;99.00;;;;;;5039905;28;20037;-69
2021/11/06 11:54:24;;;;;;;13.93;11.82;;;10.50;99.00;;;;;;5053370;28;20090;-66
2021/11/06 11:57:14;;;;;;;19.40;12.60;;;10.40;99.40;;;;;;5052772;28;20488;-67
2021/11/06 11:59:39;;;;;;;16.20;11.20;;;10.40;98.90;;;;;;5052911;28;20033;-68
2021/11/06 12:02:19;;;;;;;13.73;10.82;;;10.40;99.20;;;;;;5051256;28;20028;-68
2021/11/06 12:04:45;;;;;;;14.77;11.07;;;10.60;99.10;;;;;;5052429;28;20037;-68
2021/11/06 12:07:19;;;;;;;14.55;10.30;;;10.60;98.90;;;;;;5056287;28;20102;-68
2021/11/06 12:09:45;;;;;;;;;;;10.70;98.90;;;;;;5056180;28;20025;-67
2021/11/06 12:12:11;;;;;;;13.15;10.02;;;10.70;98.90;;;;;;5055896;28;19915;-67
2021/11/06 12:14:44;;;;;;;14.48;10.60;;;10.80;99.00;;;;;;5053001;28;20502;-67
2021/11/06 12:17:10;;;;;;;16.05;9.82;;;10.90;98.60;;;;;;5038052;28;20048;-68
2021/11/06 12:19:49;;;;;;;12.77;9.40;;;10.90;97.70;;;;;;5055308;28;20025;-69
2021/11/06 12:22:33;;;;;;;12.38;8.75;;;10.90;98.20;;;;;;5056163;28;20100;-68
2021/11/06 12:25:19;;;;;;;11.70;9.15;;;11.00;98.00;;;;;;5054310;28;20124;-67
2021/11/06 12:27:58;;;;;;;11.98;9.20;;;11.00;98.10;;;;;;5055465;28;20082;-68
2021/11/06 12:30:28;;;;;;;12.63;9.40;;;11.00;97.90;;;;;;5053665;28;20033;-67
2021/11/06 12:32:54;;;;;;;13.02;8.95;;;11.00;98.00;;;;;;5052816;28;20133;-66
2021/11/06 12:35:25;;;;;;;11.38;9.55;;;11.00;98.00;;;;;;5052855;28;20569;-67
2021/11/06 12:38:05;;;;;;;13.70;9.45;;;11.20;97.80;;;;;;5054093;28;20129;-67
2021/11/06 12:40:35;;;;;;;11.88;8.30;;;11.30;97.60;;;;;;5052649;28;20116;-69
2021/11/06 12:43:20;;;;;;;10.63;8.20;;;11.10;97.50;;;;;;5054698;28;20067;-67